CYZT

Port Hardy Airport

Port Hardy, , Canada
TAF CYZT 241238Z 2413/2501 VRB03KT P6SM SCT006 BKN015 TEMPO 2413/2419 3SM BR BKN005 FM241900 35007KT P6SM SCT015 TEMPO 2419/2421 BKN015 FM242100 25007KT P6SM FEW025 RMK NXT FCST BY 241900Z
Issued Valid From Valid To
Sep-24 @ 12:38 UTC
(an hour ago)
Sep-24 @ 13:00 UTC
(43 minutes ago)
Sep-25 @ 01:00 UTC
(in 11 hours)
Sep-24 @ 13:00 to Sep-24 @ 19:00
TAF CYZT 241238Z 2413/2501 VRB03KT P6SM SCT006 BKN015
Wind Visibility Clouds
Variable at 3 knots Greater than 6 miles
  • Scattered at 600' AGL
  • Broken at 1,500' AGL
Temporary Sep-24 @ 13:00 to Sep-24 @ 19:00
TEMPO 2413/2419 3SM BR BKN005
Visibility Clouds Conditions
3 miles
  • Broken at 500' AGL
  • Mist
Temporary Sep-24 @ 19:00 to Sep-24 @ 21:00
TEMPO 2419/2421 BKN015
Clouds
  • Broken at 1,500' AGL
From Sep-24 @ 19:00 to Sep-24 @ 21:00
FM241900 35007KT P6SM SCT015
Wind Visibility Clouds
350° at 7 knots Greater than 6 miles
  • Scattered at 1,500' AGL
From Sep-24 @ 21:00 to Sep-25 @ 01:00
FM242100 25007KT P6SM FEW025 RMK NXT FCST BY 241900Z
Wind Visibility Clouds
250° at 7 knots Greater than 6 miles
  • Few at 2,500' AGL
TAF CYZT 241238Z 2413/2501 VRB03KT P6SM SCT006 BKN015 TEMPO 2413/2419 3SM BR BKN005 FM241900 35007KT P6SM SCT015 TEMPO 2419/2421 BKN015 FM242100 25007KT P6SM FEW025 RMK NXT FCST BY 241900Z
Issued Sep-24 @ 12:38 UTC
(an hour ago)
Valid From Sep-24 @ 13:00 UTC
(43 minutes ago)
Valid To Sep-25 @ 01:00 UTC
(in 11 hours)
Sep-24 @ 13:00 - Sep-24 @ 19:00
Wind Visibility
Variable at 3 knots Greater than 6 miles
Clouds
  • Scattered at 600' AGL
  • Broken at 1,500' AGL
Temporary Sep-24 @ 13:00 - Sep-24 @ 19:00
Clouds
  • Broken at 500' AGL
Conditions
  • Mist
Temporary Sep-24 @ 19:00 - Sep-24 @ 21:00
Clouds
  • Broken at 1,500' AGL
From Sep-24 @ 19:00 - Sep-24 @ 21:00
Wind Visibility
350° at 7 knots Greater than 6 miles
Clouds
  • Scattered at 1,500' AGL
From Sep-24 @ 21:00 - Sep-25 @ 01:00
Wind Visibility
250° at 7 knots Greater than 6 miles
Clouds
  • Few at 2,500' AGL